sensor_id;sensor_type;location;lat;lon;timestamp;pressure;altitude;pressure_sealevel;temperature;humidity
55664;BME280;41540;57.880;12.164;2022-07-29T00:01:38;102073.91;;;12.34;nan
55664;BME280;41540;57.880;12.164;2022-07-29T00:11:38;102028.47;;;11.97;nan
55664;BME280;41540;57.880;12.164;2022-07-29T00:21:39;102029.09;;;11.90;nan
55664;BME280;41540;57.880;12.164;2022-07-29T00:31:39;102023.31;;;11.75;nan
55664;BME280;41540;57.880;12.164;2022-07-29T00:41:40;101939.72;;;11.35;nan
55664;BME280;41540;57.880;12.164;2022-07-29T00:51:40;102036.63;;;11.60;nan
55664;BME280;41540;57.880;12.164;2022-07-29T01:01:41;102031.72;;;11.67;nan
55664;BME280;41540;57.880;12.164;2022-07-29T01:11:42;101938.38;;;11.22;nan
55664;BME280;41540;57.880;12.164;2022-07-29T01:21:51;101954.00;;;11.24;nan
55664;BME280;41540;57.880;12.164;2022-07-29T01:32:05;101916.34;;;11.11;nan
55664;BME280;41540;57.880;12.164;2022-07-29T01:42:13;101870.88;;;11.21;nan
55664;BME280;41540;57.880;12.164;2022-07-29T01:52:34;101867.31;;;11.17;nan
55664;BME280;41540;57.880;12.164;2022-07-29T02:02:39;101861.94;;;11.12;nan
55664;BME280;41540;57.880;12.164;2022-07-29T02:12:40;101877.69;;;11.17;nan
55664;BME280;41540;57.880;12.164;2022-07-29T02:22:44;101872.03;;;11.29;nan
55664;BME280;41540;57.880;12.164;2022-07-29T02:32:46;101843.13;;;11.18;nan
55664;BME280;41540;57.880;12.164;2022-07-29T02:42:48;101904.59;;;11.45;nan
55664;BME280;41540;57.880;12.164;2022-07-29T02:53:02;101911.81;;;11.79;nan
55664;BME280;41540;57.880;12.164;2022-07-29T03:03:09;101812.88;;;11.70;nan
55664;BME280;41540;57.880;12.164;2022-07-29T03:13:11;101773.50;;;12.11;nan
55664;BME280;41540;57.880;12.164;2022-07-29T03:23:18;101708.19;;;15.90;nan
55664;BME280;41540;57.880;12.164;2022-07-29T03:33:19;101514.34;;;17.71;nan
55664;BME280;41540;57.880;12.164;2022-07-29T03:43:20;101247.88;;;19.69;nan
55664;BME280;41540;57.880;12.164;2022-07-29T03:53:23;100939.13;;;16.61;nan
55664;BME280;41540;57.880;12.164;2022-07-29T04:03:23;100811.66;;;14.61;nan
55664;BME280;41540;57.880;12.164;2022-07-29T04:13:24;101069.00;;;20.47;nan
55664;BME280;41540;57.880;12.164;2022-07-29T04:23:24;101075.66;;;23.86;nan
55664;BME280;41540;57.880;12.164;2022-07-29T04:33:25;101464.31;;;24.67;nan
55664;BME280;41540;57.880;12.164;2022-07-29T04:43:26;101394.31;;;25.92;nan
55664;BME280;41540;57.880;12.164;2022-07-29T04:53:26;101312.75;;;28.24;nan
55664;BME280;41540;57.880;12.164;2022-07-29T05:03:27;101057.66;;;30.94;nan
55664;BME280;41540;57.880;12.164;2022-07-29T05:13:27;101016.06;;;32.58;nan
55664;BME280;41540;57.880;12.164;2022-07-29T05:23:28;100994.69;;;32.56;nan
55664;BME280;41540;57.880;12.164;2022-07-29T05:33:28;101013.50;;;32.69;nan
55664;BME280;41540;57.880;12.164;2022-07-29T05:43:29;100994.13;;;33.17;nan
55664;BME280;41540;57.880;12.164;2022-07-29T05:53:29;101456.84;;;21.85;nan
55664;BME280;41540;57.880;12.164;2022-07-29T06:03:29;101320.53;;;20.66;nan
55664;BME280;41540;57.880;12.164;2022-07-29T06:13:31;101671.06;;;23.78;nan
55664;BME280;41540;57.880;12.164;2022-07-29T06:23:31;101429.97;;;20.92;nan
55664;BME280;41540;57.880;12.164;2022-07-29T06:33:32;100871.47;;;19.48;nan
55664;BME280;41540;57.880;12.164;2022-07-29T06:53:34;101012.94;;;21.41;nan
55664;BME280;41540;57.880;12.164;2022-07-29T07:03:35;101428.72;;;28.10;nan
55664;BME280;41540;57.880;12.164;2022-07-29T07:13:35;101701.69;;;22.22;nan
55664;BME280;41540;57.880;12.164;2022-07-29T07:23:35;101373.66;;;21.02;nan
55664;BME280;41540;57.880;12.164;2022-07-29T07:33:36;101531.31;;;22.62;nan
55664;BME280;41540;57.880;12.164;2022-07-29T07:43:36;101303.63;;;28.48;nan
55664;BME280;41540;57.880;12.164;2022-07-29T07:53:37;101094.81;;;29.22;nan
55664;BME280;41540;57.880;12.164;2022-07-29T08:03:37;101054.03;;;27.35;nan
55664;BME280;41540;57.880;12.164;2022-07-29T08:13:38;101716.91;;;23.77;nan
55664;BME280;41540;57.880;12.164;2022-07-29T08:23:39;101716.13;;;23.24;nan
55664;BME280;41540;57.880;12.164;2022-07-29T08:33:45;101673.50;;;22.89;nan
55664;BME280;41540;57.880;12.164;2022-07-29T08:43:46;101667.94;;;23.56;nan
55664;BME280;41540;57.880;12.164;2022-07-29T08:53:49;101674.22;;;23.50;nan
55664;BME280;41540;57.880;12.164;2022-07-29T09:03:50;101624.50;;;23.23;nan
55664;BME280;41540;57.880;12.164;2022-07-29T09:13:54;101581.16;;;24.16;nan
55664;BME280;41540;57.880;12.164;2022-07-29T09:34:02;101346.94;;;25.24;nan
55664;BME280;41540;57.880;12.164;2022-07-29T09:44:02;101366.31;;;25.55;nan
55664;BME280;41540;57.880;12.164;2022-07-29T09:54:24;101359.22;;;26.35;nan
55664;BME280;41540;57.880;12.164;2022-07-29T10:04:52;101412.41;;;25.21;nan
55664;BME280;41540;57.880;12.164;2022-07-29T10:14:52;101527.88;;;24.31;nan
55664;BME280;41540;57.880;12.164;2022-07-29T10:24:54;101380.41;;;25.83;nan
55664;BME280;41540;57.880;12.164;2022-07-29T10:45:04;101203.19;;;24.60;nan
55664;BME280;41540;57.880;12.164;2022-07-29T10:55:05;101241.06;;;25.46;nan
55664;BME280;41540;57.880;12.164;2022-07-29T11:05:17;101220.63;;;24.04;nan
55664;BME280;41540;57.880;12.164;2022-07-29T11:15:21;101103.00;;;24.73;nan
55664;BME280;41540;57.880;12.164;2022-07-29T11:25:21;101066.56;;;24.79;nan
55664;BME280;41540;57.880;12.164;2022-07-29T11:35:23;100987.16;;;25.28;nan
55664;BME280;41540;57.880;12.164;2022-07-29T11:45:25;101311.41;;;23.72;nan
55664;BME280;41540;57.880;12.164;2022-07-29T11:55:28;101532.41;;;22.98;nan
55664;BME280;41540;57.880;12.164;2022-07-29T12:15:35;101610.97;;;22.88;nan
55664;BME280;41540;57.880;12.164;2022-07-29T12:25:36;101536.38;;;22.74;nan
55664;BME280;41540;57.880;12.164;2022-07-29T12:35:39;101629.47;;;25.00;nan
55664;BME280;41540;57.880;12.164;2022-07-29T12:45:46;101602.78;;;23.52;nan
55664;BME280;41540;57.880;12.164;2022-07-29T12:55:49;101626.16;;;22.74;nan
55664;BME280;41540;57.880;12.164;2022-07-29T13:05:51;101552.13;;;22.23;nan
55664;BME280;41540;57.880;12.164;2022-07-29T13:16:05;101329.59;;;21.74;nan
55664;BME280;41540;57.880;12.164;2022-07-29T13:26:08;101251.69;;;21.54;nan
55664;BME280;41540;57.880;12.164;2022-07-29T13:36:09;101383.94;;;21.19;nan
55664;BME280;41540;57.880;12.164;2022-07-29T13:46:09;101378.06;;;21.00;nan
55664;BME280;41540;57.880;12.164;2022-07-29T13:56:09;101398.38;;;20.90;nan
55664;BME280;41540;57.880;12.164;2022-07-29T14:06:10;101155.03;;;19.67;nan
55664;BME280;41540;57.880;12.164;2022-07-29T14:16:11;101322.47;;;20.50;nan
55664;BME280;41540;57.880;12.164;2022-07-29T14:26:12;101502.38;;;21.33;nan
55664;BME280;41540;57.880;12.164;2022-07-29T14:36:12;101606.78;;;21.46;nan
55664;BME280;41540;57.880;12.164;2022-07-29T14:46:12;101581.34;;;21.37;nan
55664;BME280;41540;57.880;12.164;2022-07-29T14:56:14;101533.75;;;20.69;nan
55664;BME280;41540;57.880;12.164;2022-07-29T15:06:14;101577.09;;;21.27;nan
55664;BME280;41540;57.880;12.164;2022-07-29T15:16:15;101530.00;;;20.96;nan
55664;BME280;41540;57.880;12.164;2022-07-29T15:26:15;101618.44;;;21.20;nan
55664;BME280;41540;57.880;12.164;2022-07-29T15:36:16;101549.13;;;21.15;nan
55664;BME280;41540;57.880;12.164;2022-07-29T15:46:17;101646.41;;;21.34;nan
55664;BME280;41540;57.880;12.164;2022-07-29T15:56:37;101623.44;;;21.50;nan
55664;BME280;41540;57.880;12.164;2022-07-29T16:06:37;101626.84;;;21.58;nan
55664;BME280;41540;57.880;12.164;2022-07-29T16:16:38;101624.94;;;21.74;nan
55664;BME280;41540;57.880;12.164;2022-07-29T16:26:39;101575.94;;;21.53;nan
55664;BME280;41540;57.880;12.164;2022-07-29T16:36:39;101509.81;;;20.97;nan
55664;BME280;41540;57.880;12.164;2022-07-29T16:46:43;101531.88;;;20.85;nan
55664;BME280;41540;57.880;12.164;2022-07-29T16:56:43;101491.88;;;20.38;nan
55664;BME280;41540;57.880;12.164;2022-07-29T17:06:43;101534.09;;;20.24;nan
55664;BME280;41540;57.880;12.164;2022-07-29T17:16:44;101528.91;;;20.15;nan
55664;BME280;41540;57.880;12.164;2022-07-29T17:26:44;101598.31;;;19.83;nan
55664;BME280;41540;57.880;12.164;2022-07-29T17:36:46;101474.13;;;19.31;nan
55664;BME280;41540;57.880;12.164;2022-07-29T17:46:46;101589.50;;;19.92;nan
55664;BME280;41540;57.880;12.164;2022-07-29T17:56:46;101510.56;;;20.04;nan
55664;BME280;41540;57.880;12.164;2022-07-29T18:06:47;101515.88;;;19.97;nan
55664;BME280;41540;57.880;12.164;2022-07-29T18:16:47;101593.75;;;20.21;nan
55664;BME280;41540;57.880;12.164;2022-07-29T18:26:47;101598.28;;;19.91;nan
55664;BME280;41540;57.880;12.164;2022-07-29T18:36:48;101519.66;;;19.29;nan
55664;BME280;41540;57.880;12.164;2022-07-29T18:46:50;101526.69;;;19.21;nan
55664;BME280;41540;57.880;12.164;2022-07-29T18:56:50;101598.50;;;19.16;nan
55664;BME280;41540;57.880;12.164;2022-07-29T19:06:50;101514.50;;;18.26;nan
55664;BME280;41540;57.880;12.164;2022-07-29T19:16:51;101584.44;;;18.21;nan
55664;BME280;41540;57.880;12.164;2022-07-29T19:26:51;101614.03;;;17.89;nan
55664;BME280;41540;57.880;12.164;2022-07-29T19:36:52;101561.41;;;17.43;nan
55664;BME280;41540;57.880;12.164;2022-07-29T19:46:52;101534.94;;;16.94;nan
55664;BME280;41540;57.880;12.164;2022-07-29T19:56:53;101520.78;;;16.76;nan
55664;BME280;41540;57.880;12.164;2022-07-29T20:06:53;101450.09;;;16.66;nan
55664;BME280;41540;57.880;12.164;2022-07-29T20:16:57;101326.75;;;16.03;nan
55664;BME280;41540;57.880;12.164;2022-07-29T20:26:57;101369.59;;;16.22;nan
55664;BME280;41540;57.880;12.164;2022-07-29T20:36:57;101336.28;;;15.93;nan
55664;BME280;41540;57.880;12.164;2022-07-29T20:46:59;101038.03;;;15.17;nan
55664;BME280;41540;57.880;12.164;2022-07-29T20:56:59;100828.34;;;14.95;nan
55664;BME280;41540;57.880;12.164;2022-07-29T21:07:00;100970.22;;;15.22;nan
55664;BME280;41540;57.880;12.164;2022-07-29T21:17:00;101025.00;;;15.20;nan
55664;BME280;41540;57.880;12.164;2022-07-29T21:27:03;101116.91;;;14.82;nan
55664;BME280;41540;57.880;12.164;2022-07-29T21:37:22;101526.97;;;14.61;nan
55664;BME280;41540;57.880;12.164;2022-07-29T21:47:22;102295.78;;;14.45;nan
55664;BME280;41540;57.880;12.164;2022-07-29T21:57:23;102773.03;;;14.22;nan
55664;BME280;41540;57.880;12.164;2022-07-29T22:07:25;102853.53;;;14.14;nan
55664;BME280;41540;57.880;12.164;2022-07-29T22:17:25;102749.88;;;14.07;nan
55664;BME280;41540;57.880;12.164;2022-07-29T22:27:26;102317.50;;;12.62;nan
55664;BME280;41540;57.880;12.164;2022-07-29T22:37:26;102379.22;;;13.37;nan
55664;BME280;41540;57.880;12.164;2022-07-29T22:47:27;102159.88;;;12.90;nan
55664;BME280;41540;57.880;12.164;2022-07-29T22:57:27;102162.75;;;13.52;nan
55664;BME280;41540;57.880;12.164;2022-07-29T23:07:27;102142.97;;;13.59;nan
55664;BME280;41540;57.880;12.164;2022-07-29T23:17:28;102039.69;;;12.73;nan
55664;BME280;41540;57.880;12.164;2022-07-29T23:27:28;102036.50;;;12.82;nan
55664;BME280;41540;57.880;12.164;2022-07-29T23:37:28;102120.47;;;13.05;nan
55664;BME280;41540;57.880;12.164;2022-07-29T23:47:29;102152.75;;;13.12;nan
55664;BME280;41540;57.880;12.164;2022-07-29T23:57:29;102130.72;;;13.00;nan
